Time;durP1;ratioP1;P1;durP2;ratioP2;P2;SDS_P1;SDS_P2;PMS_P1;PMS_P2;Temp;Humidity;BMP_temperature;BMP_pressure;BME280_temperature;BME280_humidity;BME280_pressure;Samples;Min_cycle;Max_cycle;Signal;HPM_P1;HPM_P2
2021/11/29 00:01:13;;;;;;;;;;;1.80;1.00;;;;;;4968831;28;19914;-79
2021/11/29 00:03:38;;;;;;;;;;;1.80;1.00;;;;;;4964924;28;19922;-80
2021/11/29 00:06:04;;;;;;;;;;;1.70;1.00;;;;;;4967782;28;19914;-79
2021/11/29 00:08:29;;;;;;;;;;;1.70;1.00;;;;;;4967049;28;19910;-79
2021/11/29 00:10:55;;;;;;;;;;;1.70;1.00;;;;;;4975452;28;19914;-80
2021/11/29 00:13:20;;;;;;;;;;;1.70;1.00;;;;;;4968230;28;19933;-79
2021/11/29 00:15:46;;;;;;;;;;;1.70;1.00;;;;;;4974373;28;19923;-80
2021/11/29 00:18:11;;;;;;;;;;;1.60;1.00;;;;;;4962514;28;19918;-79
2021/11/29 00:20:37;;;;;;;;;;;1.60;1.00;;;;;;4961733;28;19914;-80
2021/11/29 00:23:03;;;;;;;;;;;1.60;1.00;;;;;;4964379;28;19939;-79
2021/11/29 00:25:28;;;;;;;;;;;1.60;1.00;;;;;;4971633;28;19914;-79
2021/11/29 00:27:54;;;;;;;;;;;1.60;1.00;;;;;;4964262;28;20426;-79
2021/11/29 00:30:19;;;;;;;;;;;1.60;1.00;;;;;;4966240;28;19961;-79
2021/11/29 00:32:45;;;;;;;;;;;1.60;1.00;;;;;;4988741;28;19968;-79
2021/11/29 00:35:11;;;;;;;;;;;1.50;1.00;;;;;;4964983;28;19921;-80
2021/11/29 00:37:37;;;;;;;;;;;1.50;1.00;;;;;;4969531;28;19918;-79
2021/11/29 00:40:04;;;;;;;;;;;1.50;1.00;;;;;;4967687;28;20029;-80
2021/11/29 00:42:29;;;;;;;;;;;1.50;1.00;;;;;;4968024;28;20170;-79
2021/11/29 00:44:55;;;;;;;;;;;1.50;1.00;;;;;;4957523;28;20298;-79
2021/11/29 00:47:20;;;;;;;;;;;1.40;1.00;;;;;;4959335;28;19925;-80
2021/11/29 00:49:46;;;;;;;;;;;1.40;1.00;;;;;;4967639;28;19910;-80
2021/11/29 00:52:11;;;;;;;;;;;1.40;1.00;;;;;;4979059;28;19918;-79
2021/11/29 00:54:37;;;;;;;;;;;1.40;1.00;;;;;;4973433;28;19919;-79
2021/11/29 00:57:02;;;;;;;;;;;1.40;1.00;;;;;;4961592;28;19915;-79
2021/11/29 00:59:28;;;;;;;;;;;1.40;1.00;;;;;;4972135;28;19914;-79
2021/11/29 01:01:54;;;;;;;;;;;1.30;1.00;;;;;;4967262;28;19910;-79
2021/11/29 01:04:19;;;;;;;;;;;1.30;1.00;;;;;;4971486;28;19922;-79
2021/11/29 01:06:45;;;;;;;;;;;1.30;1.00;;;;;;4969167;28;19974;-80
2021/11/29 01:09:10;;;;;;;;;;;1.30;1.00;;;;;;4976456;28;19968;-79
2021/11/29 01:11:36;;;;;;;;;;;1.30;1.00;;;;;;4977870;28;19921;-79
2021/11/29 01:14:02;;;;;;;;;;;1.30;1.00;;;;;;4973340;28;20049;-80
2021/11/29 01:16:28;;;;;;;;;;;1.30;1.00;;;;;;4974251;28;19914;-79
2021/11/29 01:18:53;;;;;;;;;;;1.30;1.00;;;;;;4974510;28;19918;-79
2021/11/29 01:21:19;;;;;;;;;;;1.30;1.00;;;;;;4969623;28;19914;-80
2021/11/29 01:23:45;;;;;;;;;;;1.30;1.00;;;;;;4977210;28;19967;-79
2021/11/29 01:26:11;;;;;;;;;;;1.30;1.00;;;;;;4977707;28;19914;-80
2021/11/29 01:28:37;;;;;;;;;;;1.30;1.00;;;;;;4977367;28;20382;-79
2021/11/29 01:31:02;;;;;;;;;;;1.30;1.00;;;;;;4973819;28;19956;-79
2021/11/29 01:33:28;;;;;;;;;;;1.30;1.00;;;;;;4974657;28;19930;-79
2021/11/29 01:35:53;;;;;;;;;;;1.20;1.00;;;;;;4971184;28;20366;-80
2021/11/29 01:38:19;;;;;;;;;;;1.20;1.00;;;;;;4974030;28;19922;-80
2021/11/29 01:40:44;;;;;;;;;;;1.20;1.00;;;;;;4975930;28;19918;-80
2021/11/29 01:43:11;;;;;;;;;;;1.20;1.00;;;;;;4975824;28;19914;-80
2021/11/29 01:45:56;;;;;;;;;;;1.20;1.00;;;;;;4977457;28;19983;-80
2021/11/29 01:48:22;;;;;;;;;;;1.20;1.00;;;;;;4979097;28;19918;-79
2021/11/29 01:50:49;;;;;;;;;;;1.20;1.00;;;;;;4979286;28;19921;-79
2021/11/29 01:53:15;;;;;;;;;;;1.20;1.00;;;;;;4974713;28;20005;-80
2021/11/29 01:55:42;;;;;;;;;;;1.20;1.00;;;;;;4975525;28;19918;-79
2021/11/29 01:58:07;;;;;;;;;;;1.20;1.00;;;;;;4973450;28;19914;-79
2021/11/29 02:00:34;;;;;;;;;;;1.20;1.00;;;;;;4975427;28;19957;-80
2021/11/29 02:03:00;;;;;;;;;;;1.10;1.00;;;;;;4969537;28;19915;-79
2021/11/29 02:05:26;;;;;;;;;;;1.10;1.00;;;;;;4976835;28;19977;-79
2021/11/29 02:07:52;;;;;;;;;;;1.10;1.00;;;;;;4974290;28;19932;-79
2021/11/29 02:10:19;;;;;;;;;;;1.10;1.00;;;;;;4964430;28;20005;-80
2021/11/29 02:12:45;;;;;;;;;;;1.10;1.00;;;;;;4973942;28;19914;-79
2021/11/29 02:15:11;;;;;;;;;;;1.10;1.00;;;;;;4973875;28;19921;-80
2021/11/29 02:17:37;;;;;;;;;;;1.10;1.00;;;;;;4977022;28;20061;-79
2021/11/29 02:20:03;;;;;;;;;;;1.10;1.00;;;;;;4975278;28;19961;-79
2021/11/29 02:22:29;;;;;;;;;;;1.10;1.00;;;;;;4974802;28;19910;-79
2021/11/29 02:24:54;;;;;;;;;;;1.10;1.00;;;;;;4966561;28;19914;-80
2021/11/29 02:27:19;;;;;;;;;;;1.10;1.00;;;;;;4968120;28;20012;-79
2021/11/29 02:29:45;;;;;;;;;;;1.10;1.00;;;;;;4968045;28;19910;-80
2021/11/29 02:32:10;;;;;;;;;;;1.10;1.00;;;;;;4969110;28;20672;-79
2021/11/29 02:34:36;;;;;;;;;;;1.10;1.00;;;;;;4978327;28;19910;-80
2021/11/29 02:37:03;;;;;;;;;;;1.10;1.00;;;;;;4969691;28;20139;-80
2021/11/29 02:39:29;;;;;;;;;;;1.10;1.00;;;;;;4964161;28;19915;-80
2021/11/29 02:41:55;;;;;;;;;;;1.20;1.00;;;;;;4975393;28;19910;-79
2021/11/29 02:44:21;;;;;;;;;;;1.20;1.00;;;;;;4959526;28;20385;-79
2021/11/29 02:46:46;;;;;;;;;;;1.20;1.00;;;;;;4969283;28;20009;-79
2021/11/29 02:49:13;;;;;;;;;;;1.30;1.00;;;;;;4975927;28;19925;-79
2021/11/29 02:51:46;;;;;;;;;;;1.40;1.00;;;;;;4975455;28;19914;-79
2021/11/29 02:54:14;;;;;;;;;;;1.40;1.00;;;;;;4966985;28;19918;-81
2021/11/29 02:56:41;;;;;;;;;;;1.50;1.00;;;;;;4974544;28;20005;-79
2021/11/29 02:59:08;;;;;;;;;;;1.50;1.00;;;;;;4967422;28;19910;-79
2021/11/29 03:01:34;;;;;;;;;;;1.50;1.00;;;;;;4974536;28;19938;-81
2021/11/29 03:04:00;;;;;;;;;;;1.60;1.00;;;;;;4973477;28;20347;-81
2021/11/29 03:06:26;;;;;;;;;;;1.60;1.00;;;;;;4975600;28;19910;-81
2021/11/29 03:08:51;;;;;;;;;;;1.70;1.00;;;;;;4960530;28;20409;-82
2021/11/29 03:11:17;;;;;;;;;;;1.70;1.00;;;;;;4972754;28;19915;-82
2021/11/29 03:13:43;;;;;;;;;;;1.80;1.00;;;;;;4969781;28;19921;-81
2021/11/29 03:16:09;;;;;;;;;;;1.80;1.00;;;;;;4966460;28;19941;-80
2021/11/29 03:18:37;;;;;;;;;;;1.80;1.00;;;;;;4974675;28;19914;-79
2021/11/29 03:21:03;;;;;;;;;;;1.80;1.00;;;;;;4973593;28;20382;-80
2021/11/29 03:23:30;;;;;;;;;;;1.80;1.00;;;;;;4975580;28;19997;-80
2021/11/29 03:25:56;;;;;;;;;;;1.80;1.00;;;;;;4975008;28;19953;-80
2021/11/29 03:28:21;;;;;;;;;;;1.80;1.00;;;;;;4967636;28;19937;-80
2021/11/29 03:30:47;;;;;;;;;;;1.80;1.00;;;;;;4975262;28;19914;-80
2021/11/29 03:33:12;;;;;;;;;;;1.80;1.00;;;;;;4969629;28;19976;-79
2021/11/29 03:35:38;;;;;;;;;;;1.70;1.00;;;;;;4975148;28;19914;-80
2021/11/29 03:38:04;;;;;;;;;;;1.70;1.00;;;;;;4966835;28;19910;-79
2021/11/29 03:40:29;;;;;;;;;;;1.70;1.00;;;;;;4973621;28;20499;-79
2021/11/29 03:42:55;;;;;;;;;;;1.70;1.00;;;;;;4972790;28;19910;-79
2021/11/29 03:45:21;;;;;;;;;;;1.70;1.00;;;;;;4975315;28;19923;-81
2021/11/29 03:47:46;;;;;;;;;;;1.70;1.00;;;;;;4969484;28;19919;-81
2021/11/29 03:50:12;;;;;;;;;;;1.70;1.00;;;;;;4973525;28;20294;-81
2021/11/29 03:52:37;;;;;;;;;;;1.60;1.00;;;;;;4971221;28;19949;-81
2021/11/29 03:55:03;;;;;;;;;;;1.60;1.00;;;;;;4963649;28;19918;-79
2021/11/29 03:57:28;;;;;;;;;;;1.60;1.00;;;;;;4967476;28;20366;-79
2021/11/29 03:59:54;;;;;;;;;;;1.50;1.00;;;;;;4966275;28;19949;-79
2021/11/29 04:02:19;;;;;;;;;;;1.60;1.00;;;;;;4975737;28;19910;-80
2021/11/29 04:04:45;;;;;;;;;;;1.50;1.00;;;;;;4969518;28;19914;-79
2021/11/29 04:07:10;;;;;;;;;;;1.50;1.00;;;;;;4973047;28;19922;-79
2021/11/29 04:09:36;;;;;;;;;;;1.50;1.00;;;;;;4961972;28;19918;-80
2021/11/29 04:12:02;;;;;;;;;;;1.50;1.00;;;;;;4966321;28;20362;-80
2021/11/29 04:14:28;;;;;;;;;;;1.40;1.00;;;;;;4973307;28;19914;-80
2021/11/29 04:16:54;;;;;;;;;;;1.40;1.00;;;;;;4974749;28;19981;-80
2021/11/29 04:19:19;;;;;;;;;;;1.40;1.00;;;;;;4967528;28;20342;-79
2021/11/29 04:21:45;;;;;;;;;;;1.30;1.00;;;;;;4974206;28;19914;-79
2021/11/29 04:24:12;;;;;;;;;;;1.30;1.00;;;;;;4994189;28;19920;-79
2021/11/29 04:26:39;;;;;;;;;;;1.30;1.00;;;;;;4976588;28;19926;-79
2021/11/29 04:29:15;;;;;;;;;;;1.20;1.00;;;;;;4976461;28;19937;-79
2021/11/29 04:31:41;;;;;;;;;;;1.20;1.00;;;;;;4973422;28;19914;-80
2021/11/29 04:34:06;;;;;;;;;;;1.20;1.00;;;;;;4976062;28;19914;-80
2021/11/29 04:36:32;;;;;;;;;;;1.20;1.00;;;;;;4969558;28;19944;-79
2021/11/29 04:38:57;;;;;;;;;;;1.20;1.00;;;;;;4970945;28;19910;-80
2021/11/29 04:41:23;;;;;;;;;;;1.20;1.00;;;;;;4974734;28;19915;-79
2021/11/29 04:43:48;;;;;;;;;;;1.20;1.00;;;;;;4975172;28;19911;-81
2021/11/29 04:46:14;;;;;;;;;;;1.20;1.00;;;;;;4969462;28;20386;-81
2021/11/29 04:48:39;;;;;;;;;;;1.20;1.00;;;;;;4973697;28;19914;-81
2021/11/29 04:51:05;;;;;;;;;;;1.20;1.00;;;;;;4974092;28;19922;-82
2021/11/29 04:53:30;;;;;;;;;;;1.10;1.00;;;;;;4974692;28;19922;-82
2021/11/29 04:55:55;;;;;;;;;;;1.10;1.00;;;;;;4978232;28;20730;-81
2021/11/29 04:58:21;;;;;;;;;;;1.10;1.00;;;;;;4977340;28;19914;-81
2021/11/29 05:00:51;;;;;;;;;;;1.20;1.00;;;;;;4972116;28;19997;-81
2021/11/29 05:03:17;;;;;;;;;;;1.20;1.00;;;;;;4973601;28;19918;-81
2021/11/29 05:05:42;;;;;;;;;;;1.20;1.00;;;;;;4980278;28;19918;-78
2021/11/29 05:08:08;;;;;;;;;;;1.20;1.00;;;;;;4975135;28;19918;-79
2021/11/29 05:10:33;;;;;;;;;;;1.20;1.00;;;;;;4976598;28;20009;-81
2021/11/29 05:12:59;;;;;;;;;;;1.20;1.00;;;;;;4993270;28;19922;-81
2021/11/29 05:15:24;;;;;;;;;;;1.20;1.00;;;;;;4975936;28;19918;-81
2021/11/29 05:17:50;;;;;;;;;;;1.20;1.00;;;;;;4974714;28;19914;-81
2021/11/29 05:20:15;;;;;;;;;;;1.20;1.00;;;;;;4965505;28;19915;-81
2021/11/29 05:22:41;;;;;;;;;;;1.20;1.00;;;;;;4975950;28;20430;-81
2021/11/29 05:25:06;;;;;;;;;;;1.20;1.00;;;;;;4972289;28;19925;-81
2021/11/29 05:27:32;;;;;;;;;;;1.30;1.00;;;;;;4977459;28;19922;-81
2021/11/29 05:29:57;;;;;;;;;;;1.30;1.00;;;;;;4975025;28;19914;-81
2021/11/29 05:32:23;;;;;;;;;;;1.30;1.00;;;;;;4976721;28;19914;-81
2021/11/29 05:34:48;;;;;;;;;;;1.30;1.00;;;;;;4973686;28;19921;-81
2021/11/29 05:37:14;;;;;;;;;;;1.30;1.00;;;;;;4978137;28;19913;-81
2021/11/29 05:39:39;;;;;;;;;;;1.30;1.00;;;;;;4976628;28;20366;-82
2021/11/29 05:42:05;;;;;;;;;;;1.30;1.00;;;;;;4975051;28;19914;-80
2021/11/29 05:44:30;;;;;;;;;;;1.30;1.00;;;;;;4970827;28;20329;-81
2021/11/29 05:46:56;;;;;;;;;;;1.40;1.00;;;;;;4976440;28;19918;-79
2021/11/29 05:49:21;;;;;;;;;;;1.40;1.00;;;;;;4975959;28;19917;-81
2021/11/29 05:51:47;;;;;;;;;;;1.40;1.00;;;;;;4969912;28;20014;-81
2021/11/29 05:54:12;;;;;;;;;;;1.40;1.00;;;;;;4969993;28;20282;-81
2021/11/29 05:56:38;;;;;;;;;;;1.50;1.00;;;;;;4975124;28;19914;-81
2021/11/29 05:59:03;;;;;;;;;;;1.50;1.00;;;;;;4976830;28;20275;-81
2021/11/29 06:01:29;;;;;;;;;;;1.50;1.00;;;;;;4979089;28;19910;-81
2021/11/29 06:03:54;;;;;;;;;;;1.50;1.00;;;;;;4974619;28;19921;-81
2021/11/29 06:06:20;;;;;;;;;;;1.50;1.00;;;;;;4974065;28;19910;-81
2021/11/29 06:08:45;;;;;;;;;;;1.50;1.00;;;;;;4974616;28;19922;-81
2021/11/29 06:11:11;;;;;;;;;;;1.50;1.00;;;;;;4968624;28;19914;-80
2021/11/29 06:13:36;;;;;;;;;;;1.50;1.00;;;;;;4971142;28;19921;-81
2021/11/29 06:16:02;;;;;;;;;;;1.50;1.00;;;;;;4955898;29;19922;-81
2021/11/29 06:18:28;;;;;;;;;;;1.40;1.00;;;;;;4968602;28;19938;-82
2021/11/29 06:20:56;;;;;;;;;;;1.40;1.00;;;;;;4969072;28;19916;-81
2021/11/29 06:23:22;;;;;;;;;;;1.40;1.00;;;;;;4972943;28;20298;-81
2021/11/29 06:25:48;;;;;;;;;;;1.40;1.00;;;;;;4958729;28;19910;-81
2021/11/29 06:28:13;;;;;;;;;;;1.30;1.00;;;;;;4974026;28;19933;-81
2021/11/29 06:30:39;;;;;;;;;;;1.30;1.00;;;;;;4983702;28;19989;-79
2021/11/29 06:33:04;;;;;;;;;;;1.30;1.00;;;;;;4957639;28;19992;-79
2021/11/29 06:35:29;;;;;;;;;;;1.30;1.00;;;;;;4958518;28;19910;-79
2021/11/29 06:37:59;;;;;;;;;;;1.30;1.00;;;;;;4977879;28;20009;-81
2021/11/29 06:40:24;;;;;;;;;;;1.30;1.00;;;;;;4978445;28;19914;-81
2021/11/29 06:42:50;;;;;;;;;;;1.30;1.00;;;;;;4979600;28;19941;-81
2021/11/29 06:45:15;;;;;;;;;;;1.30;1.00;;;;;;4978274;28;19910;-81
2021/11/29 06:47:42;;;;;;;;;;;1.50;1.00;;;;;;4974405;28;19934;-81
2021/11/29 06:50:09;;;;;;;;;;;1.60;1.00;;;;;;4960410;28;19910;-79
2021/11/29 06:52:34;;;;;;;;;;;1.70;1.00;;;;;;4955427;28;19929;-79
2021/11/29 06:55:00;;;;;;;;;;;1.70;1.00;;;;;;4971273;28;20000;-81
2021/11/29 06:57:25;;;;;;;;;;;1.70;1.00;;;;;;4977672;28;20570;-79
2021/11/29 06:59:51;;;;;;;;;;;1.70;1.00;;;;;;4978647;28;19921;-79
2021/11/29 07:02:18;;;;;;;;;;;1.70;1.00;;;;;;4978337;28;19914;-81
2021/11/29 07:04:44;;;;;;;;;;;1.70;1.00;;;;;;4976340;28;19914;-79
2021/11/29 07:07:09;;;;;;;;;;;1.70;1.00;;;;;;4979011;28;19925;-79
2021/11/29 07:09:35;;;;;;;;;;;1.70;1.00;;;;;;4975967;28;19925;-79
2021/11/29 07:12:00;;;;;;;;;;;1.70;1.00;;;;;;4976358;28;20538;-79
2021/11/29 07:14:26;;;;;;;;;;;1.70;1.00;;;;;;4976912;28;19917;-78
2021/11/29 07:16:51;;;;;;;;;;;1.70;1.00;;;;;;4974925;28;20366;-79
2021/11/29 07:19:17;;;;;;;;;;;1.70;1.00;;;;;;4963746;28;19914;-78
2021/11/29 07:21:44;;;;;;;;;;;1.70;1.00;;;;;;4969060;28;19918;-79
2021/11/29 07:24:10;;;;;;;;;;;1.70;1.00;;;;;;4971097;28;19919;-79
2021/11/29 07:26:39;;;;;;;;;;;1.70;1.00;;;;;;4963818;28;19930;-78
2021/11/29 07:29:05;;;;;;;;;;;1.70;1.00;;;;;;4975949;28;20298;-78
2021/11/29 07:31:32;;;;;;;;;;;1.70;1.00;;;;;;4975267;28;19914;-78
2021/11/29 07:33:57;;;;;;;;;;;1.70;1.00;;;;;;4975601;28;20333;-80
2021/11/29 07:36:23;;;;;;;;;;;1.70;1.00;;;;;;4970919;28;19918;-79
2021/11/29 07:38:48;;;;;;;;;;;1.80;1.00;;;;;;4985830;28;19921;-78
2021/11/29 07:41:14;;;;;;;;;;;1.80;1.00;;;;;;4986040;28;19914;-78
2021/11/29 07:43:39;;;;;;;;;;;1.80;1.00;;;;;;4972250;28;19921;-78
2021/11/29 07:46:05;;;;;;;;;;;1.80;1.00;;;;;;4971694;28;20391;-79
2021/11/29 07:48:30;;;;;;;;;;;1.90;1.00;;;;;;4973904;28;19918;-78
2021/11/29 07:50:56;;;;;;;;;;;1.90;1.00;;;;;;4972395;28;19918;-78
2021/11/29 07:53:22;;;;;;;;;;;2.00;1.00;;;;;;4986567;28;19926;-78
2021/11/29 07:55:48;;;;;;;;;;;2.10;1.00;;;;;;4967832;28;19921;-78
2021/11/29 07:58:13;;;;;;;;;;;2.10;1.00;;;;;;4972192;28;20318;-80
2021/11/29 08:00:39;;;;;;;;;;;2.20;1.00;;;;;;4974490;28;19914;-80
2021/11/29 08:03:05;;;;;;;;;;;2.30;1.00;;;;;;4973322;28;19914;-78
2021/11/29 08:05:32;;;;;;;;;;;2.40;1.00;;;;;;4969756;28;19914;-79
2021/11/29 08:08:01;;;;;;;;;;;2.60;1.00;;;;;;4971795;28;20286;-79
2021/11/29 08:10:27;;;;;;;;;;;2.60;1.00;;;;;;4969365;28;20020;-80
2021/11/29 08:12:52;;;;;;;;;;;2.70;1.00;;;;;;4965267;28;19969;-78
2021/11/29 08:15:18;;;;;;;;;;;3.40;1.00;;;;;;4962928;28;20446;-79
2021/11/29 08:17:44;;;;;;;;;;;4.60;99.90;;;;;;4970781;28;19953;-79
2021/11/29 08:20:10;;;;;;;;;;;5.90;1.00;;;;;;4974356;28;19915;-79
2021/11/29 08:22:36;;;;;;;;;;;6.10;1.00;;;;;;4973829;28;19941;-79
2021/11/29 08:25:03;;;;;;;;;;;5.70;99.90;;;;;;4969878;28;20058;-79
2021/11/29 08:27:28;;;;;;;;;;;6.70;99.90;;;;;;4963068;28;19918;-80
2021/11/29 08:29:54;;;;;;;;;;;7.40;1.00;;;;;;4964279;28;19948;-79
2021/11/29 08:32:19;;;;;;;;;;;6.90;1.00;;;;;;4968060;28;19914;-79
2021/11/29 08:34:45;;;;;;;;;;;6.20;1.00;;;;;;4969634;28;19997;-79
2021/11/29 08:37:11;;;;;;;;;;;5.70;1.00;;;;;;4969241;28;19914;-79
2021/11/29 08:39:36;;;;;;;;;;;5.50;20.60;;;;;;4969485;28;19915;-80
2021/11/29 08:42:02;;;;;;;;;;;5.80;93.20;;;;;;4961729;28;19914;-79
2021/11/29 08:44:28;;;;;;;;;;;6.30;18.80;;;;;;4961604;28;19914;-79
2021/11/29 08:46:53;;;;;;;;;;;6.00;1.00;;;;;;4964709;28;20370;-79
2021/11/29 08:49:19;;;;;;;;;;;5.50;7.40;;;;;;4965654;28;20287;-78
2021/11/29 08:51:45;;;;;;;;;;;5.30;55.50;;;;;;4966564;28;19915;-78
2021/11/29 08:54:11;;;;;;;;;;;5.40;99.90;;;;;;4969633;28;19915;-79
2021/11/29 08:56:36;;;;;;;;;;;5.60;96.40;;;;;;4973183;28;20334;-78
2021/11/29 08:59:02;;;;;;;;;;;5.90;72.50;;;;;;4974759;28;19914;-78
2021/11/29 09:01:27;;;;;;;;;;;6.30;40.10;;;;;;4968323;28;19919;-79
2021/11/29 09:03:53;;;;;;;;;;;6.70;1.00;;;;;;4972841;28;19914;-79
2021/11/29 09:06:19;;;;;;;;;;;6.80;1.00;;;;;;4970970;28;20345;-79
2021/11/29 09:08:44;;;;;;;;;;;6.50;1.00;;;;;;4987605;28;19926;-79
2021/11/29 09:11:10;;;;;;;;;;;6.20;1.00;;;;;;4976208;28;19910;-79
2021/11/29 09:13:36;;;;;;;;;;;5.90;1.00;;;;;;4986898;28;19922;-78
2021/11/29 09:16:02;;;;;;;;;;;5.70;2.20;;;;;;4970126;28;19918;-79
2021/11/29 09:18:28;;;;;;;;;;;5.50;22.40;;;;;;4971069;28;20421;-78
2021/11/29 09:20:54;;;;;;;;;;;5.40;51.10;;;;;;4963914;28;19937;-77
2021/11/29 09:23:20;;;;;;;;;;;5.20;95.60;;;;;;4962316;28;19936;-79
2021/11/29 09:25:46;;;;;;;;;;;5.10;99.90;;;;;;4971878;28;19910;-79
2021/11/29 09:28:12;;;;;;;;;;;4.90;99.90;;;;;;4967777;28;20000;-79
2021/11/29 09:30:39;;;;;;;;;;;4.80;99.90;;;;;;4973112;28;20288;-79
2021/11/29 09:33:04;;;;;;;;;;;4.70;99.90;;;;;;4965760;28;19965;-79
2021/11/29 09:35:30;;;;;;;;;;;4.60;1.00;;;;;;4992558;28;19976;-78
2021/11/29 09:37:56;;;;;;;;;;;4.40;99.90;;;;;;4969341;28;20318;-79
2021/11/29 09:40:24;;;;;;;;;;;4.40;99.90;;;;;;4989373;28;19914;-79
2021/11/29 09:42:52;;;;;;;;;;;4.40;99.90;;;;;;4976090;28;19937;-79
2021/11/29 09:45:19;;;;;;;;;;;4.30;1.00;;;;;;4975284;28;20044;-79
2021/11/29 09:47:44;;;;;;;;;;;4.20;1.00;;;;;;4974941;28;20287;-79
2021/11/29 09:50:11;;;;;;;;;;;4.20;99.90;;;;;;4971168;28;19956;-79
2021/11/29 09:52:37;;;;;;;;;;;4.20;99.90;;;;;;4964104;28;19914;-78
2021/11/29 09:55:04;;;;;;;;;;;4.30;99.90;;;;;;4988670;28;19970;-79
2021/11/29 09:57:29;;;;;;;;;;;4.30;99.90;;;;;;4970471;28;20299;-78
2021/11/29 09:59:55;;;;;;;;;;;4.40;1.00;;;;;;4963598;28;20009;-79
2021/11/29 10:02:20;;;;;;;;;;;4.30;1.00;;;;;;4966079;28;19923;-79
2021/11/29 10:04:47;;;;;;;;;;;4.30;1.00;;;;;;4976870;28;19953;-79
2021/11/29 10:07:29;;;;;;;;;;;4.30;13.00;;;;;;4971411;28;19922;-79
2021/11/29 10:09:56;;;;;;;;;;;4.20;99.90;;;;;;4960118;28;19938;-79
2021/11/29 10:12:24;;;;;;;;;;;4.20;1.00;;;;;;4971849;28;20346;-80
2021/11/29 10:15:28;;;;;;;;;;;4.10;1.00;;;;;;4988129;28;19914;-79
2021/11/29 10:18:14;;;;;;;;;;;4.10;1.00;;;;;;4899566;29;19955;-79
2021/11/29 10:20:59;;;;;;;;;;;4.10;99.90;;;;;;4907949;29;19915;-79
2021/11/29 10:23:30;;;;;;;;;;;4.10;99.90;;;;;;4957108;28;19914;-79
2021/11/29 10:25:55;;;;;;;;;;;4.10;1.00;;;;;;4974759;28;19954;-81
2021/11/29 10:28:41;;;;;;;;;;;4.20;99.90;;;;;;4969148;28;19961;-79
2021/11/29 10:31:06;;;;;;;;;;;4.20;99.90;;;;;;4966010;28;19914;-79
2021/11/29 10:33:32;;;;;;;;;;;4.20;1.00;;;;;;4973107;28;19918;-79
2021/11/29 10:36:08;;;;;;;;;;;4.20;1.00;;;;;;4967454;28;19914;-78
2021/11/29 10:38:33;;;;;;;;;;;4.30;1.00;;;;;;4969426;28;19915;-79
2021/11/29 10:40:59;;;;;;;;;;;4.30;1.00;;;;;;4972082;28;20302;-80
2021/11/29 10:43:42;;;;;;;;;;;4.40;1.00;;;;;;4960798;28;20292;-78
2021/11/29 10:46:16;;;;;;;;;;;4.40;99.90;;;;;;4966588;28;19948;-79
2021/11/29 10:48:42;;;;;;;;;;;4.40;99.90;;;;;;4970651;28;19926;-78
2021/11/29 10:51:08;;;;;;;;;;;4.50;1.00;;;;;;4976241;28;19918;-79
2021/11/29 10:53:43;;;;;;;;;;;4.50;1.00;;;;;;4966105;28;19969;-78
2021/11/29 10:56:09;;;;;;;;;;;4.60;1.00;;;;;;4972218;28;19929;-78
2021/11/29 10:58:41;;;;;;;;;;;4.70;1.00;;;;;;4975921;28;19914;-79
2021/11/29 11:01:06;;;;;;;;;;;4.90;99.90;;;;;;4969197;28;20286;-78
2021/11/29 11:03:58;;;;;;;;;;;5.00;99.90;;;;;;4973308;28;19914;-78
2021/11/29 11:06:29;;;;;;;;;;;5.00;99.90;;;;;;4964043;28;19944;-78
2021/11/29 11:08:55;;;;;;;;;;;5.00;99.90;;;;;;4958044;28;19925;-79
2021/11/29 11:11:34;;;;;;;;;;;5.00;99.90;;;;;;4975925;28;19914;-79
2021/11/29 11:14:02;;;;;;;;;;;4.90;99.90;;;;;;4970556;28;19910;-79
2021/11/29 11:16:41;;;;;;;;;;;4.90;99.90;;;;;;4971173;28;19921;-78
2021/11/29 11:19:11;;;;;;;;;;;4.90;1.00;;;;;;4965847;28;19961;-78
2021/11/29 11:21:36;;;;;;;;;;;5.00;1.00;;;;;;4970662;28;19957;-79
2021/11/29 11:24:18;;;;;;;;;;;5.00;1.00;;;;;;4985356;28;19958;-79
2021/11/29 11:26:47;;;;;;;;;;;5.00;1.00;;;;;;4968078;28;19914;-78
2021/11/29 11:29:14;;;;;;;;;;;5.00;1.00;;;;;;4972189;28;19965;-79
2021/11/29 11:31:39;;;;;;;;;;;5.10;1.00;;;;;;4968655;28;19910;-79
2021/11/29 11:34:05;;;;;;;;;;;5.10;1.00;;;;;;4970657;28;19914;-78
2021/11/29 11:36:30;;;;;;;;;;;5.00;1.00;;;;;;4971629;28;20414;-78
2021/11/29 11:39:04;;;;;;;;;;;5.00;1.00;;;;;;4971213;28;20401;-79
2021/11/29 11:41:29;;;;;;;;;;;5.00;1.00;;;;;;4970376;28;20383;-78
2021/11/29 11:43:55;;;;;;;;;;;5.00;1.00;;;;;;4986155;28;19993;-79
2021/11/29 11:46:21;;;;;;;;;;;4.90;1.00;;;;;;4976844;28;19914;-78
2021/11/29 11:48:47;;;;;;;;;;;4.90;1.00;;;;;;4969841;28;19965;-79
2021/11/29 11:51:13;;;;;;;;;;;4.90;1.00;;;;;;4967424;28;19919;-79
2021/11/29 11:53:39;;;;;;;;;;;4.90;1.00;;;;;;4964292;28;19917;-78
2021/11/29 11:56:05;;;;;;;;;;;5.00;1.00;;;;;;4969680;28;19925;-78
2021/11/29 11:58:35;;;;;;;;;;;5.10;99.90;;;;;;4963376;28;19921;-78
2021/11/29 12:01:00;;;;;;;;;;;5.30;1.00;;;;;;4956807;28;19937;-79
2021/11/29 12:03:30;;;;;;;;;;;5.40;1.00;;;;;;4969360;28;19914;-79
2021/11/29 12:05:58;;;;;;;;;;;5.40;1.00;;;;;;4968756;28;19920;-78
2021/11/29 12:08:26;;;;;;;;;;;5.30;99.90;;;;;;4964847;28;19915;-78
2021/11/29 12:10:52;;;;;;;;;;;5.30;99.90;;;;;;4967505;28;20362;-78
2021/11/29 12:13:19;;;;;;;;;;;5.30;1.00;;;;;;4966238;28;19961;-78
2021/11/29 12:15:49;;;;;;;;;;;5.40;1.00;;;;;;4971845;28;20009;-78
2021/11/29 12:18:33;;;;;;;;;;;5.40;99.90;;;;;;4966976;28;19919;-77
2021/11/29 12:21:14;;;;;;;;;;;5.30;99.90;;;;;;4974199;28;19914;-77
2021/11/29 12:23:43;;;;;;;;;;;5.30;99.90;;;;;;4973712;28;19918;-77
2021/11/29 12:26:09;;;;;;;;;;;5.30;99.90;;;;;;4972919;28;19918;-78
2021/11/29 12:28:36;;;;;;;;;;;5.40;1.00;;;;;;4971083;28;19918;-78
2021/11/29 12:31:01;;;;;;;;;;;5.40;99.90;;;;;;4975064;28;19918;-77
2021/11/29 12:33:42;;;;;;;;;;;5.50;1.00;;;;;;4958673;28;19938;-79
2021/11/29 12:36:07;;;;;;;;;;;5.50;1.00;;;;;;4959742;28;19921;-78
2021/11/29 12:38:44;;;;;;;;;;;5.60;1.00;;;;;;4968632;28;20323;-78
2021/11/29 12:41:10;;;;;;;;;;;5.70;99.90;;;;;;4957925;28;20275;-78
2021/11/29 12:43:37;;;;;;;;;;;5.70;99.90;;;;;;4967372;28;19914;-78
2021/11/29 12:46:21;;;;;;;;;;;5.70;15.70;;;;;;4975760;28;20000;-78
2021/11/29 12:48:47;;;;;;;;;;;5.70;1.00;;;;;;4972940;28;20012;-79
2021/11/29 12:51:12;;;;;;;;;;;5.80;1.00;;;;;;4973362;28;20355;-78
2021/11/29 12:53:39;;;;;;;;;;;5.80;1.00;;;;;;4976876;28;20310;-78
2021/11/29 12:56:04;;;;;;;;;;;5.80;1.00;;;;;;4957321;28;20005;-78
2021/11/29 12:58:31;;;;;;;;;;;5.70;1.00;;;;;;4971146;28;20361;-78
2021/11/29 13:01:06;;;;;;;;;;;5.80;1.00;;;;;;4973253;28;19914;-78
2021/11/29 13:03:34;;;;;;;;;;;5.80;1.00;;;;;;4968428;28;19914;-79
2021/11/29 13:06:01;;;;;;;;;;;5.90;1.00;;;;;;4976308;28;20005;-78
2021/11/29 13:08:26;;;;;;;;;;;5.90;99.90;;;;;;4972523;28;19931;-78
2021/11/29 13:11:10;;;;;;;;;;;5.90;99.90;;;;;;4963432;28;20383;-77
2021/11/29 13:13:47;;;;;;;;;;;5.90;99.90;;;;;;4965414;28;19914;-78
2021/11/29 13:16:23;;;;;;;;;;;5.90;99.90;;;;;;4969435;28;19957;-78
2021/11/29 13:21:18;;;;;;;;;;;6.00;1.00;;;;;;4970441;28;19921;-78
2021/11/29 13:23:44;;;;;;;;;;;6.20;99.90;;;;;;4969231;28;19938;-78
2021/11/29 13:26:10;;;;;;;;;;;6.10;99.90;;;;;;4967780;28;20033;-79
2021/11/29 13:28:35;;;;;;;;;;;6.10;99.90;;;;;;4983779;28;20016;-78
2021/11/29 13:31:01;;;;;;;;;;;6.10;99.90;;;;;;4963388;28;19964;-78
2021/11/29 13:33:26;;;;;;;;;;;6.10;99.90;;;;;;4991293;28;19910;-77
2021/11/29 13:35:52;;;;;;;;;;;6.10;99.90;;;;;;4971694;28;19977;-78
2021/11/29 13:38:23;;;;;;;;;;;6.10;99.90;;;;;;4975877;28;19914;-79
2021/11/29 13:40:49;;;;;;;;;;;6.10;99.90;;;;;;4988944;28;19993;-78
2021/11/29 13:43:22;;;;;;;;;;;6.20;99.90;;;;;;4961323;28;19982;-77
2021/11/29 13:45:47;;;;;;;;;;;6.20;99.90;;;;;;4973804;28;19921;-78
2021/11/29 13:48:15;;;;;;;;;;;6.20;99.90;;;;;;4974721;28;19929;-78
2021/11/29 13:50:42;;;;;;;;;;;6.20;99.90;;;;;;4990838;28;20518;-78
2021/11/29 13:53:13;;;;;;;;;;;6.30;99.90;;;;;;4988903;28;19914;-78
2021/11/29 13:55:41;;;;;;;;;;;6.30;99.90;;;;;;4970235;28;19929;-78
2021/11/29 13:58:13;;;;;;;;;;;6.40;99.90;;;;;;4962048;28;20385;-77
2021/11/29 14:00:43;;;;;;;;;;;6.40;25.30;;;;;;4973639;28;19941;-77
2021/11/29 14:03:14;;;;;;;;;;;6.40;1.00;;;;;;4965372;28;20299;-78
2021/11/29 14:05:40;;;;;;;;;;;6.30;1.00;;;;;;4966380;28;20354;-78
2021/11/29 14:08:07;;;;;;;;;;;6.20;1.00;;;;;;4963957;28;19962;-78
2021/11/29 14:10:32;;;;;;;;;;;6.10;1.00;;;;;;4976476;28;20330;-78
2021/11/29 14:12:59;;;;;;;;;;;6.10;99.90;;;;;;4973423;28;19922;-79
2021/11/29 14:15:29;;;;;;;;;;;6.20;86.40;;;;;;4967311;28;19914;-78
2021/11/29 14:17:55;;;;;;;;;;;6.30;39.80;;;;;;4972546;28;19914;-78
2021/11/29 14:20:21;;;;;;;;;;;6.30;1.00;;;;;;4976448;28;19925;-78
2021/11/29 14:22:49;;;;;;;;;;;6.40;1.00;;;;;;4975172;28;19914;-78
2021/11/29 14:25:16;;;;;;;;;;;6.40;1.00;;;;;;4967605;28;20390;-78
2021/11/29 14:27:42;;;;;;;;;;;6.50;1.00;;;;;;4968098;28;19930;-78
2021/11/29 14:30:07;;;;;;;;;;;6.40;1.00;;;;;;4990699;28;20405;-78
2021/11/29 14:32:33;;;;;;;;;;;6.30;1.00;;;;;;4973401;28;19921;-78
2021/11/29 14:34:59;;;;;;;;;;;6.10;1.00;;;;;;4984741;28;19961;-78
2021/11/29 14:37:27;;;;;;;;;;;6.00;64.70;;;;;;4970816;28;19921;-78
2021/11/29 14:39:53;;;;;;;;;;;5.90;99.90;;;;;;4970186;28;19977;-79
2021/11/29 14:42:19;;;;;;;;;;;5.80;96.40;;;;;;4981294;28;20021;-78